createdAt,value
2023-04-12T00:01:56.856Z,8.58
2023-04-12T00:04:27.587Z,8.52
2023-04-12T00:06:56.280Z,8.45
2023-04-12T00:09:25.562Z,8.41
2023-04-12T00:11:54.148Z,8.96
2023-04-12T00:14:22.830Z,9.56
2023-04-12T00:18:26.197Z,9.70
2023-04-12T00:20:57.812Z,9.63
2023-04-12T00:23:28.969Z,9.45
2023-04-12T00:25:57.726Z,9.20
2023-04-12T00:28:26.366Z,8.97
2023-04-12T00:30:56.234Z,8.75
2023-04-12T00:33:24.701Z,8.59
2023-04-12T00:35:53.308Z,8.48
2023-04-12T00:38:23.434Z,8.41
2023-04-12T00:40:52.311Z,8.94
2023-04-12T00:43:20.672Z,9.55
2023-04-12T00:45:49.259Z,9.70
2023-04-12T00:48:20.978Z,9.56
2023-04-12T00:50:51.442Z,9.37
2023-04-12T00:53:22.885Z,9.14
2023-04-12T00:55:54.855Z,8.91
2023-04-12T00:58:27.135Z,8.61
2023-04-12T01:01:00.529Z,8.38
2023-04-12T01:03:31.169Z,8.25
2023-04-12T01:06:29.955Z,8.60
2023-04-12T01:08:58.324Z,8.83
2023-04-12T01:11:31.312Z,8.90
2023-04-12T01:14:03.702Z,8.81
2023-04-12T01:16:41.187Z,8.65
2023-04-12T01:19:36.892Z,8.44
2023-04-12T01:22:42.798Z,8.12
2023-04-12T01:25:11.028Z,8.26
2023-04-12T01:27:43.803Z,8.87
2023-04-12T01:30:14.436Z,9.16
2023-04-12T01:32:44.381Z,9.05
2023-04-12T01:35:12.831Z,8.71
2023-04-12T01:37:43.396Z,8.41
2023-04-12T01:40:13.338Z,8.17
2023-04-12T01:42:41.777Z,8.03
2023-04-12T01:45:11.645Z,8.42
2023-04-12T01:47:41.365Z,8.46
2023-04-12T01:50:16.205Z,8.26
2023-04-12T01:53:14.343Z,8.18
2023-04-12T01:55:45.972Z,7.86
2023-04-12T01:58:15.651Z,7.72
2023-04-12T02:00:44.128Z,8.10
2023-04-12T02:03:14.909Z,8.24
2023-04-12T02:05:44.166Z,8.13
2023-04-12T02:08:12.670Z,7.92
2023-04-12T02:10:41.850Z,7.83
2023-04-12T02:13:11.556Z,7.65
2023-04-12T02:15:40.771Z,8.00
2023-04-12T02:18:11.960Z,8.18
2023-04-12T02:20:44.164Z,8.00
2023-04-12T02:23:12.974Z,7.69
2023-04-12T02:25:41.566Z,7.62
2023-04-12T02:28:10.691Z,7.53
2023-04-12T02:30:45.862Z,7.85
2023-04-12T02:33:15.997Z,7.82
2023-04-12T02:35:44.805Z,7.74
2023-04-12T02:38:14.933Z,7.53
2023-04-12T02:40:44.194Z,7.38
2023-04-12T02:43:19.635Z,7.57
2023-04-12T02:45:51.947Z,7.65
2023-04-12T02:48:20.629Z,7.43
2023-04-12T02:50:49.493Z,7.26
2023-04-12T02:53:23.213Z,7.20
2023-04-12T02:56:01.605Z,7.47
2023-04-12T02:58:30.934Z,7.61
2023-04-12T03:01:07.913Z,7.23
2023-04-12T03:03:49.186Z,7.14
2023-04-12T03:06:32.197Z,7.17
2023-04-12T03:09:01.891Z,7.53
2023-04-12T03:11:31.394Z,7.34
2023-04-12T03:14:04.301Z,7.26
2023-04-12T03:16:35.726Z,7.12
2023-04-12T03:19:09.448Z,7.17
2023-04-12T03:21:38.874Z,7.34
2023-04-12T03:24:08.751Z,7.18
2023-04-12T03:26:37.233Z,7.09
2023-04-12T03:29:15.031Z,6.95
2023-04-12T03:31:44.766Z,7.17
2023-04-12T03:34:13.525Z,7.29
2023-04-12T03:36:45.590Z,7.10
2023-04-12T03:39:24.718Z,6.86
2023-04-12T03:41:53.652Z,7.02
2023-04-12T03:44:26.393Z,7.24
2023-04-12T03:46:56.152Z,7.26
2023-04-12T03:49:25.640Z,7.16
2023-04-12T03:51:54.248Z,7.15
2023-04-12T03:54:24.465Z,7.42
2023-04-12T03:57:05.676Z,7.47
2023-04-12T03:59:40.827Z,7.17
2023-04-12T04:02:10.070Z,7.06
2023-04-12T04:04:43.376Z,6.82
2023-04-12T04:07:14.177Z,7.11
2023-04-12T04:09:44.912Z,7.01
2023-04-12T04:12:13.679Z,6.88
2023-04-12T04:14:46.564Z,6.88
2023-04-12T04:17:21.142Z,7.04
2023-04-12T04:19:55.428Z,7.15
2023-04-12T04:22:24.212Z,7.36
2023-04-12T04:24:53.773Z,6.95
2023-04-12T04:27:22.409Z,6.67
2023-04-12T04:29:52.714Z,6.97
2023-04-12T04:32:21.182Z,6.93
2023-04-12T04:35:00.379Z,6.81
2023-04-12T04:37:37.778Z,6.67
2023-04-12T04:40:11.867Z,7.06
2023-04-12T04:42:43.280Z,6.96
2023-04-12T04:45:15.325Z,7.03
2023-04-12T04:47:46.125Z,6.97
2023-04-12T04:50:19.373Z,7.10
2023-04-12T04:52:49.900Z,7.07
2023-04-12T04:55:18.619Z,7.19
2023-04-12T04:57:48.461Z,7.06
2023-04-12T05:00:18.621Z,7.10
2023-04-12T05:02:52.231Z,7.28
2023-04-12T05:05:30.533Z,7.41
2023-04-12T05:08:07.224Z,7.23
2023-04-12T05:10:39.157Z,6.94
2023-04-12T05:29:41.183Z,6.72
2023-04-12T05:32:14.065Z,7.34
2023-04-12T05:34:42.142Z,7.38
2023-04-12T05:37:10.230Z,7.32
2023-04-12T05:39:38.604Z,7.22
2023-04-12T05:42:07.333Z,7.31
2023-04-12T05:52:17.491Z,7.20
2023-04-12T05:54:46.781Z,7.28
2023-04-12T05:57:18.745Z,7.55
2023-04-12T05:59:49.433Z,7.45
2023-04-12T06:02:20.110Z,7.28
2023-04-12T06:04:51.146Z,7.41
2023-04-12T06:07:21.889Z,7.50
2023-04-12T06:09:50.326Z,7.51
2023-04-12T06:12:19.980Z,7.20
2023-04-12T06:14:49.993Z,7.29
2023-04-12T06:17:19.107Z,7.42
2023-04-12T06:19:50.537Z,7.48
2023-04-12T06:22:19.649Z,7.37
2023-04-12T06:24:49.135Z,7.22
2023-04-12T06:27:22.841Z,7.37
2023-04-12T06:29:52.346Z,7.61
2023-04-12T06:32:21.336Z,7.64
2023-04-12T06:34:50.126Z,7.44
2023-04-12T06:37:22.022Z,7.59
2023-04-12T06:39:50.573Z,7.65
2023-04-12T06:42:19.802Z,7.50
2023-04-12T06:44:49.537Z,7.66
2023-04-12T06:47:18.217Z,7.68
2023-04-12T06:49:47.561Z,7.90
2023-04-12T06:52:16.137Z,8.13
2023-04-12T06:54:47.492Z,8.13
2023-04-12T06:57:16.273Z,7.54
2023-04-12T06:59:45.797Z,7.60
2023-04-12T07:02:14.600Z,7.70
2023-04-12T07:04:43.156Z,7.82
2023-04-12T07:07:15.636Z,7.62
2023-04-12T07:09:50.560Z,7.48
2023-04-12T07:12:19.258Z,7.69
2023-04-12T07:14:50.805Z,8.01
2023-04-12T07:17:21.653Z,8.03
2023-04-12T07:19:51.078Z,7.80
2023-04-12T07:22:27.098Z,7.46
2023-04-12T07:24:58.136Z,7.91
2023-04-12T07:27:26.822Z,8.01
2023-04-12T07:29:58.649Z,7.71
2023-04-12T07:32:27.666Z,7.38
2023-04-12T07:34:58.353Z,7.46
2023-04-12T07:37:27.517Z,7.77
2023-04-12T07:39:56.466Z,7.65
2023-04-12T07:42:25.123Z,7.72
2023-04-12T07:44:53.874Z,7.82
2023-04-12T07:47:23.287Z,8.01
2023-04-12T07:49:51.987Z,7.84
2023-04-12T07:52:20.749Z,7.99
2023-04-12T07:54:57.634Z,7.75
2023-04-12T07:57:27.177Z,7.96
2023-04-12T07:59:57.060Z,7.97
2023-04-12T08:02:26.240Z,7.84
2023-04-12T08:04:55.099Z,7.55
2023-04-12T08:07:27.940Z,7.68
2023-04-12T08:09:57.725Z,8.16
2023-04-12T08:12:26.517Z,8.37
2023-04-12T08:15:04.391Z,8.16
2023-04-12T08:17:33.852Z,7.99
2023-04-12T08:20:04.967Z,7.77
2023-04-12T08:22:37.944Z,8.17
2023-04-12T08:25:09.430Z,8.31
2023-04-12T08:27:42.798Z,7.96
2023-04-12T08:30:12.248Z,7.83
2023-04-12T08:32:41.987Z,7.86
2023-04-12T08:35:11.330Z,8.54
2023-04-12T08:37:39.886Z,8.70
2023-04-12T08:40:09.569Z,8.60
2023-04-12T08:42:38.391Z,8.31
2023-04-12T08:45:08.704Z,8.08
2023-04-12T08:47:38.924Z,8.54
2023-04-12T08:50:14.209Z,8.51
2023-04-12T08:52:43.023Z,8.04
2023-04-12T08:55:13.192Z,7.89
2023-04-12T08:57:42.080Z,7.86
2023-04-12T09:00:11.694Z,8.35
2023-04-12T09:02:47.459Z,8.50
2023-04-12T09:05:16.341Z,8.17
2023-04-12T09:07:45.731Z,8.10
2023-04-12T09:10:31.068Z,8.02
2023-04-12T09:13:01.461Z,8.10
2023-04-12T09:15:30.651Z,8.09
2023-04-12T09:18:11.618Z,7.87
2023-04-12T09:20:40.508Z,8.10
2023-04-12T09:23:22.416Z,8.06
2023-04-12T09:25:53.704Z,8.54
2023-04-12T09:28:26.382Z,9.10
2023-04-12T09:30:56.372Z,9.04
2023-04-12T09:33:46.417Z,8.72
2023-04-12T09:36:17.214Z,8.59
2023-04-12T09:39:01.249Z,8.80
2023-04-12T09:41:32.172Z,8.85
2023-04-12T09:44:01.270Z,8.81
2023-04-12T09:46:30.333Z,8.65
2023-04-12T09:48:59.423Z,8.70
2023-04-12T09:51:36.725Z,8.51
2023-04-12T09:54:06.851Z,9.04
2023-04-12T09:56:36.774Z,9.18
2023-04-12T09:59:10.949Z,8.72
2023-04-12T10:01:40.479Z,8.73
2023-04-12T10:04:09.984Z,8.58
2023-04-12T10:06:42.234Z,8.77
2023-04-12T10:09:10.757Z,9.16
2023-04-12T10:11:42.042Z,9.29
2023-04-12T10:14:12.088Z,9.47
2023-04-12T10:16:45.429Z,9.31
2023-04-12T10:19:14.162Z,9.04
2023-04-12T10:21:43.056Z,8.53
2023-04-12T10:24:17.673Z,8.81
2023-04-12T10:26:47.106Z,9.17
2023-04-12T10:29:30.240Z,9.32
2023-04-12T10:32:18.766Z,8.99
2023-04-12T10:34:58.258Z,8.87
2023-04-12T10:38:02.456Z,8.74
2023-04-12T10:46:49.896Z,9.03
2023-04-12T10:49:17.619Z,8.94
2023-04-12T10:52:05.195Z,8.65
2023-04-12T10:54:34.973Z,8.67
2023-04-12T10:57:03.747Z,8.82
2023-04-12T10:59:50.562Z,8.81
2023-04-12T11:02:17.857Z,8.34
2023-04-12T11:05:10.562Z,8.44
2023-04-12T11:08:20.730Z,8.60
2023-04-12T11:11:19.132Z,8.82
2023-04-12T11:13:46.568Z,9.21
2023-04-12T11:16:15.869Z,9.12
2023-04-12T11:18:46.696Z,8.89
2023-04-12T11:21:13.938Z,9.04
2023-04-12T11:23:45.193Z,9.03
2023-04-12T11:26:14.814Z,9.42
2023-04-12T11:28:42.150Z,9.18
2023-04-12T11:31:10.877Z,9.02
2023-04-12T11:33:39.331Z,9.24
2023-04-12T11:36:11.719Z,9.14
2023-04-12T11:38:39.570Z,8.91
2023-04-12T11:41:08.038Z,9.18
2023-04-12T11:43:37.991Z,9.43
2023-04-12T11:46:06.410Z,9.63
2023-04-12T11:48:34.709Z,9.68
2023-04-12T11:51:18.142Z,9.15
2023-04-12T11:53:45.733Z,9.10
2023-04-12T11:56:13.466Z,9.56
2023-04-12T11:58:40.717Z,9.42
2023-04-12T12:01:08.186Z,9.14
2023-04-12T12:11:13.562Z,9.83
2023-04-12T12:13:53.012Z,10.07
2023-04-12T12:16:28.958Z,9.77
2023-04-12T12:19:04.411Z,9.12
2023-04-12T12:21:33.097Z,9.29
2023-04-12T12:24:02.591Z,9.31
2023-04-12T12:26:32.299Z,9.54
2023-04-12T12:29:00.934Z,9.66
2023-04-12T12:31:33.802Z,10.05
2023-04-12T12:34:03.778Z,9.79
2023-04-12T12:36:39.182Z,9.26
2023-04-12T12:39:12.524Z,9.43
2023-04-12T12:41:41.689Z,10.01
2023-04-12T12:44:15.843Z,10.26
2023-04-12T12:46:55.174Z,10.05
2023-04-12T12:49:29.534Z,9.61
2023-04-12T12:51:59.937Z,9.45
2023-04-12T12:54:40.256Z,8.96
2023-04-12T12:57:10.023Z,8.92
2023-04-12T12:59:38.947Z,9.38
2023-04-12T13:02:08.089Z,9.83
2023-04-12T13:04:39.520Z,9.40
2023-04-12T13:07:09.090Z,9.18
2023-04-12T13:09:37.830Z,8.97
2023-04-12T13:12:11.838Z,9.26
2023-04-12T13:14:42.310Z,9.56
2023-04-12T13:17:10.957Z,9.78
2023-04-12T13:19:48.437Z,9.38
2023-04-12T13:22:18.356Z,9.07
2023-04-12T13:24:47.057Z,9.20
2023-04-12T13:27:21.879Z,9.72
2023-04-12T13:29:51.669Z,9.76
2023-04-12T13:32:26.272Z,9.51
2023-04-12T13:34:55.627Z,9.17
2023-04-12T13:37:24.284Z,8.85
2023-04-12T13:39:54.205Z,9.06
2023-04-12T13:42:24.139Z,9.20
2023-04-12T13:44:52.512Z,9.33
2023-04-12T13:47:23.784Z,9.44
2023-04-12T13:49:52.355Z,9.34
2023-04-12T13:52:21.212Z,9.24
2023-04-12T13:54:51.866Z,9.55
2023-04-12T13:57:20.939Z,9.55
2023-04-12T13:59:50.859Z,9.51
2023-04-12T14:02:19.726Z,9.17
2023-04-12T14:04:55.488Z,9.07
2023-04-12T14:07:24.611Z,9.63
2023-04-12T14:09:54.007Z,9.69
2023-04-12T14:12:22.790Z,9.47
2023-04-12T14:14:51.377Z,9.31
2023-04-12T14:17:20.668Z,9.14
2023-04-12T14:19:51.508Z,9.58
2023-04-12T14:22:20.195Z,9.92
2023-04-12T14:24:48.819Z,9.94
2023-04-12T14:27:18.137Z,9.73
2023-04-12T14:29:47.162Z,9.39
2023-04-12T14:32:19.750Z,9.19
2023-04-12T14:34:49.452Z,9.63
2023-04-12T14:37:17.834Z,9.77
2023-04-12T14:39:46.639Z,9.73
2023-04-12T14:42:16.025Z,9.37
2023-04-12T14:44:45.737Z,9.21
2023-04-12T14:47:15.240Z,9.32
2023-04-12T14:49:44.135Z,9.74
2023-04-12T14:52:16.699Z,9.72
2023-04-12T14:54:46.716Z,9.58
2023-04-12T14:57:15.820Z,9.38
2023-04-12T14:59:50.897Z,9.57
2023-04-12T15:02:22.187Z,9.81
2023-04-12T15:04:52.716Z,9.72
2023-04-12T15:07:21.539Z,9.66
2023-04-12T15:09:50.108Z,9.47
2023-04-12T15:12:18.685Z,9.47
2023-04-12T15:14:47.580Z,9.94
2023-04-12T15:17:20.119Z,9.93
2023-04-12T15:19:48.843Z,9.85
2023-04-12T15:22:21.010Z,9.58
2023-04-12T15:24:50.615Z,9.35
2023-04-12T15:27:19.295Z,9.73
2023-04-12T15:29:48.393Z,10.00
2023-04-12T15:32:18.349Z,9.84
2023-04-12T15:34:47.196Z,9.72
2023-04-12T15:37:16.262Z,9.65
2023-04-12T15:39:45.490Z,9.46
2023-04-12T15:42:14.814Z,9.89
2023-04-12T15:44:43.388Z,10.17
2023-04-12T15:47:12.410Z,10.08
2023-04-12T15:49:41.730Z,9.89
2023-04-12T15:52:10.061Z,9.58
2023-04-12T15:54:44.180Z,9.44
2023-04-12T15:57:13.251Z,9.86
2023-04-12T15:59:47.992Z,10.02
2023-04-12T16:02:17.490Z,9.94
2023-04-12T16:04:46.699Z,9.72
2023-04-12T16:07:15.373Z,9.46
2023-04-12T16:09:44.514Z,9.33
2023-04-12T16:12:14.618Z,9.70
2023-04-12T16:14:43.486Z,10.13
2023-04-12T16:17:14.724Z,10.05
2023-04-12T16:19:43.850Z,9.77
2023-04-12T16:22:12.915Z,9.57
2023-04-12T16:24:45.589Z,9.33
2023-04-12T16:27:15.250Z,9.64
2023-04-12T16:29:44.103Z,10.00
2023-04-12T16:32:14.989Z,10.02
2023-04-12T16:34:44.857Z,9.77
